createdAt,value
2016-11-15T00:00:18.215Z,0
2016-11-15T00:01:17.970Z,0
2016-11-15T00:02:18.001Z,0
2016-11-15T00:03:18.220Z,0
2016-11-15T00:04:17.775Z,0
2016-11-15T00:05:18.494Z,0
2016-11-15T00:06:18.955Z,0
2016-11-15T00:07:18.469Z,0
2016-11-15T00:08:18.233Z,0
2016-11-15T00:09:19.588Z,0
2016-11-15T00:10:18.623Z,0
2016-11-15T00:11:18.146Z,0
2016-11-15T00:12:19.219Z,0
2016-11-15T00:13:19.065Z,0
2016-11-15T00:14:18.382Z,0
2016-11-15T00:15:19.797Z,0
2016-11-15T00:16:18.982Z,0
2016-11-15T00:17:20.433Z,0
2016-11-15T00:18:19.723Z,0
2016-11-15T00:19:20.192Z,0
2016-11-15T00:20:18.947Z,0
2016-11-15T00:21:19.578Z,0
2016-11-15T00:22:20.666Z,0
2016-11-15T00:23:18.575Z,0
2016-11-15T00:24:18.394Z,0
2016-11-15T00:25:20.537Z,0
2016-11-15T00:26:20.142Z,0
2016-11-15T00:27:19.344Z,0
2016-11-15T00:28:19.348Z,0
2016-11-15T00:29:20.501Z,0
2016-11-15T00:30:20.903Z,0
2016-11-15T00:31:19.719Z,0
2016-11-15T00:32:21.869Z,0
2016-11-15T00:33:21.254Z,0
2016-11-15T00:34:19.836Z,0
2016-11-15T00:35:20.676Z,0
2016-11-15T00:36:19.807Z,0
2016-11-15T00:37:20.526Z,0
2016-11-15T00:38:20.436Z,0
2016-11-15T00:39:23.762Z,0
2016-11-15T00:40:20.667Z,0
2016-11-15T00:41:21.152Z,0
2016-11-15T00:42:21.849Z,0
2016-11-15T00:43:23.445Z,0
2016-11-15T00:44:20.285Z,0
2016-11-15T00:45:21.023Z,0
2016-11-15T00:46:22.000Z,0
2016-11-15T00:47:21.995Z,0
2016-11-15T00:48:22.478Z,0
2016-11-15T00:49:21.277Z,0
2016-11-15T00:50:19.719Z,0
2016-11-15T00:51:21.600Z,0
2016-11-15T00:52:20.308Z,0
2016-11-15T00:53:21.159Z,0
2016-11-15T00:54:19.966Z,0
2016-11-15T00:55:20.169Z,0
2016-11-15T00:56:19.696Z,0
2016-11-15T00:57:20.683Z,0
2016-11-15T00:58:19.583Z,0
2016-11-15T00:59:20.206Z,0
2016-11-15T01:00:19.604Z,0
2016-11-15T01:01:19.369Z,0
2016-11-15T01:02:19.845Z,0
2016-11-15T01:03:19.723Z,0
2016-11-15T01:04:20.088Z,0
2016-11-15T01:05:19.368Z,0
2016-11-15T01:06:19.483Z,0
2016-11-15T01:07:19.964Z,0
2016-11-15T01:08:19.849Z,0
2016-11-15T01:09:19.489Z,0
2016-11-15T01:10:19.367Z,0
2016-11-15T01:11:19.327Z,0
2016-11-15T01:12:19.609Z,0
2016-11-15T01:13:19.492Z,0
2016-11-15T01:14:19.487Z,0
2016-11-15T01:15:19.609Z,0
2016-11-15T01:16:20.333Z,0
2016-11-15T01:17:19.375Z,0
2016-11-15T01:18:20.074Z,0
2016-11-15T01:19:20.212Z,0
2016-11-15T01:20:19.851Z,0
2016-11-15T01:21:19.247Z,0
2016-11-15T01:22:19.856Z,0
2016-11-15T01:23:19.623Z,0
2016-11-15T01:24:19.495Z,0
2016-11-15T01:25:19.470Z,0
2016-11-15T01:26:19.458Z,0
2016-11-15T01:27:19.473Z,0
2016-11-15T01:28:18.895Z,0
2016-11-15T01:29:19.141Z,0
2016-11-15T01:30:20.096Z,0
2016-11-15T01:31:19.360Z,0
2016-11-15T01:32:19.481Z,0
2016-11-15T01:33:19.585Z,0
2016-11-15T01:34:19.232Z,0
2016-11-15T01:35:19.967Z,0
2016-11-15T01:36:19.129Z,0
2016-11-15T01:37:19.976Z,0
2016-11-15T01:38:19.341Z,0
2016-11-15T01:39:19.147Z,0
2016-11-15T01:40:19.861Z,0
2016-11-15T01:41:19.248Z,0
2016-11-15T01:42:19.855Z,0
2016-11-15T01:43:19.499Z,0
2016-11-15T01:44:19.489Z,0
2016-11-15T01:45:19.866Z,0
2016-11-15T01:46:19.242Z,0
2016-11-15T01:47:19.853Z,0
2016-11-15T01:48:19.136Z,0
2016-11-15T01:49:19.366Z,0
2016-11-15T01:50:19.250Z,0
2016-11-15T01:51:19.388Z,0
2016-11-15T01:52:19.598Z,0
2016-11-15T01:53:19.265Z,0
2016-11-15T01:54:19.035Z,0
2016-11-15T01:55:19.488Z,0
2016-11-15T01:56:19.279Z,0
2016-11-15T01:57:20.087Z,0
2016-11-15T01:58:19.253Z,0
2016-11-15T01:59:19.412Z,0
2016-11-15T02:00:19.031Z,0
2016-11-15T02:01:19.497Z,0
2016-11-15T02:02:19.490Z,0
2016-11-15T02:03:19.157Z,0
2016-11-15T02:04:19.160Z,0
2016-11-15T02:05:19.260Z,0
2016-11-15T02:06:19.755Z,0
2016-11-15T02:07:19.738Z,0
2016-11-15T02:08:19.727Z,0
2016-11-15T02:09:19.161Z,0
2016-11-15T02:10:19.625Z,0
2016-11-15T02:11:19.630Z,0
2016-11-15T02:12:19.730Z,0
2016-11-15T02:13:19.491Z,0
2016-11-15T02:14:19.280Z,0
2016-11-15T02:15:19.644Z,0
2016-11-15T02:16:19.386Z,0
2016-11-15T02:17:19.860Z,0
2016-11-15T02:18:19.163Z,0
2016-11-15T02:19:19.612Z,0
2016-11-15T02:20:19.508Z,0
2016-11-15T02:21:19.264Z,0
2016-11-15T02:22:20.240Z,0
2016-11-15T02:23:19.770Z,0
2016-11-15T02:24:19.616Z,0
2016-11-15T02:25:20.223Z,0
2016-11-15T02:26:19.891Z,0
2016-11-15T02:27:20.012Z,0
2016-11-15T02:28:20.220Z,0
2016-11-15T02:29:19.989Z,0
2016-11-15T02:30:19.984Z,0
2016-11-15T02:31:19.430Z,0
2016-11-15T02:32:20.222Z,0
2016-11-15T02:33:19.995Z,0
2016-11-15T02:34:20.139Z,0
2016-11-15T02:35:20.112Z,0
2016-11-15T02:36:19.735Z,0
2016-11-15T02:37:20.594Z,0
2016-11-15T02:38:19.775Z,0
2016-11-15T02:39:20.111Z,0
2016-11-15T02:40:19.876Z,0
2016-11-15T02:41:20.367Z,0
2016-11-15T02:42:20.745Z,0
2016-11-15T02:43:19.759Z,0
2016-11-15T02:44:20.964Z,0
2016-11-15T02:45:20.355Z,0
2016-11-15T02:46:19.782Z,0
2016-11-15T02:47:20.108Z,0
2016-11-15T02:48:19.781Z,0
2016-11-15T02:49:20.146Z,0
2016-11-15T02:50:20.263Z,0
2016-11-15T02:51:20.137Z,0
2016-11-15T02:52:21.067Z,0
2016-11-15T02:53:20.583Z,0
2016-11-15T02:54:20.107Z,0
2016-11-15T02:55:20.475Z,0
2016-11-15T02:56:19.998Z,0
2016-11-15T02:57:20.480Z,0
2016-11-15T02:58:20.867Z,0
2016-11-15T02:59:20.222Z,0
2016-11-15T03:00:20.474Z,0
2016-11-15T03:01:20.620Z,0
2016-11-15T03:02:20.481Z,0
2016-11-15T03:03:20.862Z,0
2016-11-15T03:04:20.037Z,0
2016-11-15T03:05:20.232Z,0
2016-11-15T03:06:21.193Z,0
2016-11-15T03:07:20.122Z,0
2016-11-15T03:08:20.344Z,0
2016-11-15T03:09:20.299Z,0
2016-11-15T03:10:19.919Z,0
2016-11-15T03:11:20.361Z,0
2016-11-15T03:12:20.355Z,0
2016-11-15T03:13:20.113Z,0
2016-11-15T03:14:20.363Z,0
2016-11-15T03:15:20.720Z,0
2016-11-15T03:16:20.121Z,0
2016-11-15T03:17:20.615Z,0
2016-11-15T03:18:19.915Z,0
2016-11-15T03:19:20.767Z,0
2016-11-15T03:20:20.231Z,0
2016-11-15T03:21:21.201Z,0
2016-11-15T03:22:21.081Z,0
2016-11-15T03:23:20.253Z,0
2016-11-15T03:24:20.720Z,0
2016-11-15T03:25:20.352Z,0
2016-11-15T03:26:20.894Z,0
2016-11-15T03:27:21.195Z,0
2016-11-15T03:28:20.721Z,0
2016-11-15T03:29:20.764Z,0
2016-11-15T03:30:20.610Z,0
2016-11-15T03:31:21.701Z,0
2016-11-15T03:32:20.881Z,0
2016-11-15T03:33:20.284Z,0
2016-11-15T03:34:20.888Z,0
2016-11-15T03:35:21.081Z,0
2016-11-15T03:36:21.923Z,0
2016-11-15T03:37:20.651Z,0
2016-11-15T03:38:21.820Z,0
2016-11-15T03:39:20.655Z,0
2016-11-15T03:40:20.855Z,0
2016-11-15T03:41:21.102Z,0
2016-11-15T03:42:20.843Z,0
2016-11-15T03:43:21.002Z,0
2016-11-15T03:44:21.213Z,0
2016-11-15T03:45:20.866Z,0
2016-11-15T03:46:21.207Z,0
2016-11-15T03:47:20.607Z,0
2016-11-15T03:48:22.418Z,0
2016-11-15T03:49:21.352Z,0
2016-11-15T03:50:21.366Z,0
2016-11-15T03:51:21.724Z,0
2016-11-15T03:52:21.860Z,0
2016-11-15T03:53:21.733Z,0
2016-11-15T03:54:21.335Z,0
2016-11-15T03:55:21.462Z,0
2016-11-15T03:56:21.853Z,0
2016-11-15T03:57:22.188Z,0
2016-11-15T03:58:21.981Z,0
2016-11-15T03:59:22.580Z,0
2016-11-15T04:00:21.721Z,0
2016-11-15T04:01:22.809Z,0
2016-11-15T04:02:22.086Z,0
2016-11-15T04:03:21.703Z,0
2016-11-15T04:04:21.981Z,0
2016-11-15T04:05:22.578Z,0
2016-11-15T04:06:21.509Z,0
2016-11-15T04:07:21.872Z,0
2016-11-15T04:08:21.951Z,0
2016-11-15T04:09:21.940Z,0
2016-11-15T04:10:22.452Z,0
2016-11-15T04:11:22.587Z,0
2016-11-15T04:12:23.066Z,0
2016-11-15T04:13:22.106Z,0
2016-11-15T04:14:21.504Z,0
2016-11-15T04:15:21.747Z,0
2016-11-15T04:16:22.189Z,0
2016-11-15T04:17:22.099Z,0
2016-11-15T04:18:21.953Z,0
2016-11-15T04:19:21.969Z,0
2016-11-15T04:20:22.352Z,0
2016-11-15T04:21:22.228Z,0
2016-11-15T04:22:21.481Z,0
2016-11-15T04:23:21.947Z,0
2016-11-15T04:24:21.467Z,0
2016-11-15T04:25:21.529Z,0
2016-11-15T04:26:22.468Z,0
2016-11-15T04:27:23.168Z,0
2016-11-15T04:28:21.755Z,0
2016-11-15T04:29:22.081Z,0
2016-11-15T04:30:22.329Z,0
2016-11-15T04:31:22.354Z,0
2016-11-15T04:32:22.709Z,0
2016-11-15T04:33:22.101Z,0
2016-11-15T04:34:22.348Z,0
2016-11-15T04:35:21.522Z,0
2016-11-15T04:36:21.636Z,0
2016-11-15T04:37:22.229Z,0
2016-11-15T04:38:23.072Z,0
2016-11-15T04:39:21.986Z,0
2016-11-15T04:40:23.079Z,0
2016-11-15T04:41:22.196Z,0
2016-11-15T04:42:21.985Z,0
2016-11-15T04:43:22.237Z,0
2016-11-15T04:44:22.600Z,0
2016-11-15T04:45:22.474Z,0
2016-11-15T04:46:22.002Z,0
2016-11-15T04:47:22.566Z,0
2016-11-15T04:48:22.485Z,0
2016-11-15T04:49:22.244Z,0
2016-11-15T04:50:21.872Z,0
2016-11-15T04:51:22.486Z,0
2016-11-15T04:52:22.964Z,0
2016-11-15T04:53:22.127Z,0
2016-11-15T04:54:22.484Z,0
2016-11-15T04:55:22.104Z,0
2016-11-15T04:56:23.050Z,0
2016-11-15T04:57:21.770Z,0
2016-11-15T04:58:22.246Z,0
2016-11-15T04:59:22.093Z,0
2016-11-15T05:00:22.842Z,0
2016-11-15T05:01:22.834Z,0
2016-11-15T05:02:22.253Z,0
2016-11-15T05:03:22.731Z,0
2016-11-15T05:04:21.891Z,0
2016-11-15T05:05:21.729Z,0
2016-11-15T05:06:21.879Z,0
2016-11-15T05:07:21.894Z,0
2016-11-15T05:08:22.254Z,0
2016-11-15T05:09:22.122Z,0
2016-11-15T05:10:22.494Z,0
2016-11-15T05:11:22.848Z,0
2016-11-15T05:12:23.335Z,0
2016-11-15T05:13:21.995Z,0
2016-11-15T05:14:22.495Z,0
2016-11-15T05:15:22.499Z,0
2016-11-15T05:16:22.383Z,0
2016-11-15T05:17:22.485Z,0
2016-11-15T05:18:22.137Z,0
2016-11-15T05:19:21.868Z,0
2016-11-15T05:20:22.383Z,0
2016-11-15T05:21:22.600Z,0
2016-11-15T05:22:22.252Z,0
2016-11-15T05:23:22.103Z,0
2016-11-15T05:24:22.383Z,0
2016-11-15T05:25:22.462Z,0
2016-11-15T05:26:22.595Z,0
2016-11-15T05:27:22.142Z,0
2016-11-15T05:28:22.389Z,0
2016-11-15T05:29:22.368Z,0
2016-11-15T05:30:22.835Z,0
2016-11-15T05:31:22.712Z,0
2016-11-15T05:32:22.381Z,0
2016-11-15T05:33:22.744Z,0
2016-11-15T05:34:22.600Z,0
2016-11-15T05:35:22.624Z,0
2016-11-15T05:36:22.843Z,0
2016-11-15T05:37:22.268Z,0
2016-11-15T05:38:23.231Z,0
2016-11-15T05:39:22.835Z,0
2016-11-15T05:40:22.869Z,0
2016-11-15T05:41:23.577Z,0
2016-11-15T05:42:22.964Z,0
2016-11-15T05:43:22.763Z,0
2016-11-15T05:44:22.249Z,0
2016-11-15T05:45:22.833Z,0
2016-11-15T05:46:23.009Z,0
2016-11-15T05:47:22.753Z,0
2016-11-15T05:48:22.601Z,0
2016-11-15T05:49:22.364Z,0
2016-11-15T05:50:23.592Z,0
2016-11-15T05:51:22.597Z,0
2016-11-15T05:52:22.845Z,0
2016-11-15T05:53:22.606Z,0
2016-11-15T05:54:22.242Z,0
2016-11-15T05:55:22.032Z,0
2016-11-15T05:56:23.002Z,0
2016-11-15T05:57:23.367Z,0
2016-11-15T05:58:22.741Z,0
2016-11-15T05:59:22.369Z,0
2016-11-15T06:00:22.366Z,0
2016-11-15T06:01:22.766Z,0
2016-11-15T06:02:22.617Z,0
2016-11-15T06:03:23.340Z,0
2016-11-15T06:04:23.469Z,0
2016-11-15T06:05:22.884Z,0
2016-11-15T06:06:23.021Z,0
2016-11-15T06:07:22.905Z,0
2016-11-15T06:08:22.868Z,0
2016-11-15T06:09:22.872Z,0
2016-11-15T06:10:23.499Z,0
2016-11-15T06:11:23.219Z,0
2016-11-15T06:12:23.732Z,0
2016-11-15T06:13:23.017Z,0
2016-11-15T06:14:23.218Z,4
2016-11-15T06:15:23.467Z,4
2016-11-15T06:16:23.120Z,0
2016-11-15T06:17:23.325Z,4
2016-11-15T06:18:23.371Z,4
2016-11-15T06:19:22.744Z,8
2016-11-15T06:20:24.333Z,4
2016-11-15T06:21:22.736Z,8
2016-11-15T06:22:23.586Z,8
2016-11-15T06:23:23.486Z,12
2016-11-15T06:24:23.095Z,12
2016-11-15T06:25:23.378Z,12
2016-11-15T06:26:23.823Z,12
2016-11-15T06:27:23.467Z,20
2016-11-15T06:28:23.940Z,20
2016-11-15T06:29:23.486Z,20
2016-11-15T06:30:23.742Z,24
2016-11-15T06:31:24.217Z,24
2016-11-15T06:32:24.068Z,28
2016-11-15T06:33:24.547Z,28
2016-11-15T06:34:24.224Z,36
2016-11-15T06:35:23.994Z,40
2016-11-15T06:36:24.460Z,48
2016-11-15T06:37:24.708Z,52
2016-11-15T06:38:23.709Z,56
2016-11-15T06:39:22.893Z,64
2016-11-15T06:40:24.094Z,80
2016-11-15T06:41:23.714Z,80
2016-11-15T06:42:23.387Z,84
2016-11-15T06:43:23.989Z,88
2016-11-15T06:44:24.468Z,100
2016-11-15T06:45:25.190Z,116
2016-11-15T06:46:24.663Z,116
2016-11-15T06:47:24.344Z,120
2016-11-15T06:48:23.509Z,128
2016-11-15T06:49:23.597Z,136
2016-11-15T06:50:23.737Z,132
2016-11-15T06:51:24.570Z,164
2016-11-15T06:52:23.459Z,160
2016-11-15T06:53:23.752Z,164
2016-11-15T06:54:24.798Z,188
2016-11-15T06:55:25.071Z,200
2016-11-15T06:56:23.870Z,204
2016-11-15T06:57:24.687Z,236
2016-11-15T06:58:24.832Z,284
2016-11-15T06:59:24.075Z,300
2016-11-15T07:00:25.033Z,312
2016-11-15T07:01:24.829Z,332
2016-11-15T07:02:24.698Z,376
2016-11-15T07:03:24.818Z,368
2016-11-15T07:04:25.787Z,412
2016-11-15T07:05:25.888Z,472
2016-11-15T07:06:23.751Z,464
2016-11-15T07:07:23.843Z,492
2016-11-15T07:08:24.437Z,496
2016-11-15T07:09:24.354Z,492
2016-11-15T07:10:25.434Z,500
2016-11-15T07:11:25.789Z,576
2016-11-15T07:12:24.789Z,572
2016-11-15T07:13:24.837Z,624
2016-11-15T07:14:23.271Z,636
2016-11-15T07:15:22.787Z,608
2016-11-15T07:16:23.142Z,600
2016-11-15T07:17:22.794Z,608
2016-11-15T07:18:22.913Z,664
2016-11-15T07:19:24.241Z,712
2016-11-15T07:20:24.397Z,768
2016-11-15T07:21:23.019Z,748
2016-11-15T07:22:23.045Z,792
2016-11-15T07:23:23.553Z,808
2016-11-15T07:24:23.633Z,848
2016-11-15T07:25:23.602Z,848
2016-11-15T07:26:23.921Z,800
2016-11-15T07:27:23.965Z,852
2016-11-15T07:28:24.185Z,888
2016-11-15T07:29:23.956Z,876
2016-11-15T07:30:23.377Z,772
2016-11-15T07:31:23.326Z,896
2016-11-15T07:32:23.630Z,868
2016-11-15T07:33:23.697Z,844
2016-11-15T07:34:23.368Z,724
2016-11-15T07:35:23.717Z,804
2016-11-15T07:36:23.129Z,756
2016-11-15T07:37:23.170Z,748
2016-11-15T07:38:23.152Z,824
2016-11-15T07:39:24.307Z,836
2016-11-15T07:40:23.596Z,768
2016-11-15T07:41:23.144Z,896
2016-11-15T07:42:23.090Z,828
2016-11-15T07:43:23.363Z,848
2016-11-15T07:44:23.239Z,848
2016-11-15T07:45:23.679Z,872
2016-11-15T07:46:23.490Z,916
2016-11-15T07:47:23.557Z,880
2016-11-15T07:48:23.985Z,908
2016-11-15T07:49:24.579Z,864
2016-11-15T07:50:23.513Z,1084
2016-11-15T07:51:23.272Z,1156
2016-11-15T07:52:23.415Z,1112
2016-11-15T07:53:23.714Z,1044
2016-11-15T07:54:23.759Z,1108
2016-11-15T07:55:23.509Z,1252
2016-11-15T07:56:23.428Z,1224
2016-11-15T07:57:24.687Z,1248
2016-11-15T07:58:23.717Z,1208
2016-11-15T07:59:24.003Z,1332
2016-11-15T08:00:23.583Z,1504
2016-11-15T08:01:24.068Z,1424
2016-11-15T08:02:23.930Z,1376
2016-11-15T08:03:24.596Z,1496
2016-11-15T08:04:24.225Z,1356
2016-11-15T08:05:23.736Z,1300
2016-11-15T08:06:24.056Z,1404
2016-11-15T08:07:23.950Z,1336
2016-11-15T08:08:24.799Z,1296
2016-11-15T08:09:24.104Z,1116
2016-11-15T08:10:24.810Z,1008
2016-11-15T08:11:24.215Z,1168
2016-11-15T08:12:23.950Z,1296
2016-11-15T08:13:24.215Z,1076
2016-11-15T08:14:24.579Z,1164
2016-11-15T08:15:24.051Z,1276
2016-11-15T08:16:23.978Z,1332
2016-11-15T08:17:24.622Z,1364
2016-11-15T08:18:24.263Z,1404
2016-11-15T08:19:24.563Z,1588
2016-11-15T08:20:24.258Z,1668
2016-11-15T08:21:24.118Z,1748
2016-11-15T08:22:24.421Z,1724
2016-11-15T08:23:24.443Z,1668
2016-11-15T08:24:24.229Z,1592
2016-11-15T08:25:24.147Z,1668
2016-11-15T08:26:24.640Z,1836
2016-11-15T08:27:24.390Z,1800
2016-11-15T08:28:24.023Z,1732
2016-11-15T08:29:24.231Z,1744
2016-11-15T08:30:24.424Z,1700
2016-11-15T08:31:24.364Z,1628
2016-11-15T08:32:24.003Z,1744
2016-11-15T08:33:23.766Z,1716
2016-11-15T08:34:24.835Z,1776
2016-11-15T08:35:24.221Z,1736
2016-11-15T08:36:24.236Z,1604
2016-11-15T08:37:24.601Z,1712
2016-11-15T08:38:24.486Z,1656
2016-11-15T08:39:23.955Z,1680
2016-11-15T08:40:24.156Z,1728
2016-11-15T08:41:24.473Z,1836
2016-11-15T08:42:23.969Z,2008
2016-11-15T08:43:24.348Z,1856
2016-11-15T08:44:24.916Z,2008
2016-11-15T08:45:24.567Z,2204
2016-11-15T08:46:24.571Z,2272
2016-11-15T08:47:24.244Z,2464
2016-11-15T08:48:24.590Z,2436
2016-11-15T08:49:24.690Z,2612
2016-11-15T08:50:24.105Z,2596
2016-11-15T08:51:25.181Z,2632
2016-11-15T08:52:24.582Z,2664
2016-11-15T08:53:24.469Z,2376
2016-11-15T08:54:24.212Z,2328
2016-11-15T08:55:24.306Z,2172
2016-11-15T08:56:24.779Z,1972
2016-11-15T08:57:24.870Z,2004
2016-11-15T08:58:25.038Z,2344
2016-11-15T08:59:24.686Z,2512
2016-11-15T09:00:24.706Z,2904
2016-11-15T09:01:24.789Z,2836
2016-11-15T09:02:24.938Z,3028
2016-11-15T09:03:24.751Z,3000
2016-11-15T09:04:24.732Z,3328
2016-11-15T09:05:24.660Z,3276
2016-11-15T09:06:24.611Z,3088
2016-11-15T09:07:24.691Z,3164
2016-11-15T09:08:24.688Z,3216
2016-11-15T09:09:24.955Z,3120
2016-11-15T09:10:24.411Z,3320
2016-11-15T09:11:25.198Z,3180
2016-11-15T09:12:25.106Z,2832
2016-11-15T09:13:24.449Z,2644
2016-11-15T09:14:24.483Z,2544
2016-11-15T09:15:24.895Z,2264
2016-11-15T09:16:24.783Z,2112
2016-11-15T09:17:24.941Z,1972
2016-11-15T09:18:24.704Z,2152
2016-11-15T09:19:25.210Z,2076
2016-11-15T09:20:24.781Z,1908
2016-11-15T09:21:25.408Z,1928
2016-11-15T09:22:24.953Z,1940
2016-11-15T09:23:25.119Z,1836
2016-11-15T09:24:25.594Z,1824
2016-11-15T09:25:24.955Z,1592
2016-11-15T09:26:24.876Z,1876
2016-11-15T09:27:24.547Z,1716
2016-11-15T09:28:24.565Z,1948
2016-11-15T09:29:25.134Z,2068
2016-11-15T09:30:25.481Z,2212
2016-11-15T09:31:24.700Z,2280
2016-11-15T09:32:24.733Z,2560
2016-11-15T09:33:25.389Z,2284
2016-11-15T09:34:24.729Z,2236
2016-11-15T09:35:24.968Z,2236
2016-11-15T09:36:24.877Z,2324
2016-11-15T09:37:25.970Z,2252
2016-11-15T09:38:25.754Z,2520
2016-11-15T09:39:25.089Z,2652
2016-11-15T09:40:25.033Z,2852
2016-11-15T09:41:24.702Z,2896
2016-11-15T09:42:25.437Z,3252
2016-11-15T09:43:25.321Z,3096
2016-11-15T09:44:25.289Z,3212
2016-11-15T09:45:25.504Z,2944
2016-11-15T09:46:25.429Z,2680
2016-11-15T09:47:25.914Z,3056
2016-11-15T09:48:25.445Z,3452
2016-11-15T09:49:25.009Z,3496
2016-11-15T09:50:25.526Z,3476
2016-11-15T09:51:25.965Z,3400
2016-11-15T09:52:24.914Z,3336
2016-11-15T09:53:25.296Z,3172
2016-11-15T09:54:25.198Z,3124
2016-11-15T09:55:25.169Z,3000
2016-11-15T09:56:25.357Z,2732
2016-11-15T09:57:25.818Z,2500
2016-11-15T09:58:25.326Z,2444
2016-11-15T09:59:25.346Z,2400
2016-11-15T10:00:25.625Z,2140
2016-11-15T10:01:25.111Z,2236
2016-11-15T10:02:25.634Z,2268
2016-11-15T10:03:25.256Z,2424
2016-11-15T10:04:25.755Z,2852
2016-11-15T10:05:25.785Z,2960
2016-11-15T10:06:25.124Z,3368
2016-11-15T10:07:25.281Z,3520
2016-11-15T10:08:25.401Z,3304
2016-11-15T10:09:25.629Z,2972
2016-11-15T10:10:25.609Z,2828
2016-11-15T10:11:25.681Z,2584
2016-11-15T10:12:25.452Z,2772
2016-11-15T10:13:25.610Z,3100
2016-11-15T10:14:25.299Z,3228
2016-11-15T10:15:25.914Z,3820
2016-11-15T10:16:25.315Z,4704
2016-11-15T10:17:25.899Z,4580
2016-11-15T10:18:25.284Z,5456
2016-11-15T10:19:26.130Z,6488
2016-11-15T10:20:26.299Z,7424
2016-11-15T10:21:25.288Z,8268
2016-11-15T10:22:25.469Z,7392
2016-11-15T10:23:25.964Z,6932
2016-11-15T10:24:25.507Z,7132
2016-11-15T10:25:26.125Z,6244
2016-11-15T10:26:26.018Z,6000
2016-11-15T10:27:25.714Z,5136
2016-11-15T10:28:25.804Z,4668
2016-11-15T10:29:25.499Z,4068
2016-11-15T10:30:25.830Z,3656
2016-11-15T10:31:25.381Z,3800
2016-11-15T10:32:25.580Z,3752
2016-11-15T10:33:25.829Z,3040
2016-11-15T10:34:25.439Z,2724
2016-11-15T10:35:26.026Z,2952
2016-11-15T10:36:25.798Z,2808
2016-11-15T10:37:26.274Z,2512
2016-11-15T10:38:25.339Z,2544
2016-11-15T10:39:26.038Z,2536
2016-11-15T10:40:25.539Z,2424
2016-11-15T10:41:26.007Z,2612
2016-11-15T10:42:26.028Z,2812
2016-11-15T10:43:25.876Z,3112
2016-11-15T10:44:25.742Z,3276
2016-11-15T10:45:26.011Z,3460
2016-11-15T10:46:26.009Z,3720
2016-11-15T10:47:26.375Z,4080
2016-11-15T10:48:26.492Z,4348
2016-11-15T10:49:26.435Z,4132
2016-11-15T10:50:26.378Z,5048
2016-11-15T10:51:26.054Z,5272
2016-11-15T10:52:25.696Z,5164
2016-11-15T10:53:25.995Z,5352
2016-11-15T10:54:25.683Z,4816
2016-11-15T10:55:25.983Z,3892
2016-11-15T10:56:26.248Z,3912
2016-11-15T10:57:25.619Z,4136
2016-11-15T10:58:26.650Z,4756
2016-11-15T10:59:26.076Z,5048
2016-11-15T11:00:26.630Z,4808
2016-11-15T11:01:26.241Z,5104
2016-11-15T11:02:26.556Z,5000
2016-11-15T11:03:26.032Z,5100
2016-11-15T11:04:26.417Z,5440
2016-11-15T11:05:26.633Z,5880
2016-11-15T11:06:25.725Z,6340
2016-11-15T11:07:25.920Z,5760
2016-11-15T11:08:26.032Z,5748
2016-11-15T11:09:26.905Z,6248
2016-11-15T11:10:26.503Z,5732
2016-11-15T11:11:26.372Z,6244
2016-11-15T11:12:27.355Z,6192
2016-11-15T11:13:26.230Z,6068
2016-11-15T11:14:26.185Z,5804
2016-11-15T11:15:25.880Z,5912
2016-11-15T11:16:26.280Z,5192
2016-11-15T11:17:27.233Z,5256
2016-11-15T11:18:25.931Z,5008
2016-11-15T11:19:26.969Z,4572
2016-11-15T11:20:26.554Z,4640
2016-11-15T11:21:26.860Z,4968
2016-11-15T11:22:26.193Z,4556
2016-11-15T11:23:26.864Z,4244
2016-11-15T11:24:26.563Z,4276
2016-11-15T11:25:26.502Z,4168
2016-11-15T11:26:27.048Z,4384
2016-11-15T11:27:26.634Z,4260
2016-11-15T11:28:26.382Z,3992
2016-11-15T11:29:26.533Z,3548
2016-11-15T11:30:26.303Z,3496
2016-11-15T11:31:26.878Z,3288
2016-11-15T11:32:26.433Z,3056
2016-11-15T11:33:26.887Z,3116
2016-11-15T11:34:26.390Z,3508
2016-11-15T11:35:26.665Z,3312
2016-11-15T11:36:26.611Z,3196
2016-11-15T11:37:26.778Z,3240
2016-11-15T11:38:27.246Z,2812
2016-11-15T11:39:26.392Z,2848
2016-11-15T11:40:26.975Z,3172
2016-11-15T11:41:27.236Z,3392
2016-11-15T11:42:26.858Z,3560
2016-11-15T11:43:26.626Z,3388
2016-11-15T11:44:26.977Z,3212
2016-11-15T11:45:26.896Z,3212
2016-11-15T11:46:26.854Z,3540
2016-11-15T11:47:26.509Z,3608
2016-11-15T11:48:27.142Z,3268
2016-11-15T11:49:27.137Z,3476
2016-11-15T11:50:27.815Z,3308
2016-11-15T11:51:26.980Z,3420
2016-11-15T11:52:26.341Z,3672
2016-11-15T11:53:26.567Z,3276
2016-11-15T11:54:26.895Z,3284
2016-11-15T11:55:26.984Z,3428
2016-11-15T11:56:26.657Z,3396
2016-11-15T11:57:27.131Z,3128
2016-11-15T11:58:26.592Z,3176
2016-11-15T11:59:26.122Z,2980
2016-11-15T12:00:26.782Z,2784
2016-11-15T12:01:27.058Z,2572
2016-11-15T12:02:28.200Z,2748
2016-11-15T12:03:27.052Z,2600
2016-11-15T12:04:27.675Z,2452
2016-11-15T12:05:26.859Z,2392
2016-11-15T12:06:28.953Z,2432
2016-11-15T12:07:27.654Z,2664
2016-11-15T12:08:27.963Z,2756
2016-11-15T12:09:27.800Z,2896
2016-11-15T12:10:27.218Z,2500
2016-11-15T12:11:27.082Z,2324
2016-11-15T12:12:27.494Z,2300
2016-11-15T12:13:27.911Z,2576
2016-11-15T12:14:27.876Z,2940
2016-11-15T12:15:27.966Z,3104
2016-11-15T12:16:27.065Z,3176
2016-11-15T12:17:27.127Z,3172
2016-11-15T12:18:27.837Z,3504
2016-11-15T12:19:28.132Z,3500
2016-11-15T12:20:27.986Z,3468
2016-11-15T12:21:28.513Z,3564
2016-11-15T12:22:27.621Z,3784
2016-11-15T12:23:27.604Z,3756
2016-11-15T12:24:27.674Z,3840
2016-11-15T12:25:27.570Z,3956
2016-11-15T12:26:27.565Z,4296
2016-11-15T12:27:27.989Z,4512
2016-11-15T12:28:28.366Z,4332
2016-11-15T12:29:27.630Z,3932
2016-11-15T12:30:27.270Z,3576
2016-11-15T12:31:28.167Z,3860
2016-11-15T12:32:28.473Z,4028
2016-11-15T12:33:27.900Z,3912
2016-11-15T12:34:27.697Z,3832
2016-11-15T12:35:28.039Z,3648
2016-11-15T12:36:27.943Z,3312
2016-11-15T12:37:27.632Z,2912
2016-11-15T12:38:27.586Z,2808
2016-11-15T12:39:27.358Z,2512
2016-11-15T12:40:27.400Z,2436
2016-11-15T12:41:30.275Z,2424
2016-11-15T12:42:27.529Z,2604
2016-11-15T12:43:28.409Z,2756
2016-11-15T12:44:27.144Z,2892
2016-11-15T12:45:27.909Z,3152
2016-11-15T12:46:27.595Z,3480
2016-11-15T12:47:28.232Z,3752
2016-11-15T12:48:28.200Z,3996
2016-11-15T12:49:28.201Z,3640
2016-11-15T12:50:27.765Z,3528
2016-11-15T12:51:27.950Z,3868
2016-11-15T12:52:28.479Z,3604
2016-11-15T12:53:27.303Z,3524
2016-11-15T12:54:27.619Z,3228
2016-11-15T12:55:28.371Z,3324
2016-11-15T12:56:28.601Z,2852
2016-11-15T12:57:27.801Z,2308
2016-11-15T12:58:27.461Z,1952
2016-11-15T12:59:28.997Z,2288
2016-11-15T13:00:28.480Z,2996
2016-11-15T13:01:28.563Z,3264
2016-11-15T13:02:28.424Z,3340
2016-11-15T13:03:28.404Z,3532
2016-11-15T13:04:28.102Z,3356
2016-11-15T13:05:28.111Z,3360
2016-11-15T13:06:28.171Z,3280
2016-11-15T13:07:28.163Z,3356
2016-11-15T13:08:28.166Z,3428
2016-11-15T13:09:28.567Z,3036
2016-11-15T13:10:28.142Z,2520
2016-11-15T13:11:28.508Z,1860
2016-11-15T13:12:28.539Z,1604
2016-11-15T13:13:28.637Z,1848
2016-11-15T13:14:28.109Z,2168
2016-11-15T13:15:28.379Z,1860
2016-11-15T13:16:29.235Z,1484
2016-11-15T13:17:28.485Z,1580
2016-11-15T13:18:28.234Z,1680
2016-11-15T13:19:28.715Z,1736
2016-11-15T13:20:28.194Z,2020
2016-11-15T13:21:29.227Z,2168
2016-11-15T13:22:28.474Z,2380
2016-11-15T13:23:28.457Z,2132
2016-11-15T13:24:29.388Z,2112
2016-11-15T13:25:29.392Z,2380
2016-11-15T13:26:28.171Z,2628
2016-11-15T13:27:27.990Z,2976
2016-11-15T13:28:28.934Z,2996
2016-11-15T13:29:28.777Z,3116
2016-11-15T13:30:28.758Z,2588
2016-11-15T13:31:28.783Z,2072
2016-11-15T13:32:29.675Z,1928
2016-11-15T13:33:29.070Z,1908
2016-11-15T13:34:28.308Z,1900
2016-11-15T13:35:28.897Z,1924
2016-11-15T13:36:27.890Z,1900
2016-11-15T13:37:28.419Z,1964
2016-11-15T13:38:29.137Z,1924
2016-11-15T13:39:28.510Z,1912
2016-11-15T13:40:29.601Z,1900
2016-11-15T13:41:28.223Z,2028
2016-11-15T13:42:28.893Z,2212
2016-11-15T13:43:28.694Z,2228
2016-11-15T13:44:29.149Z,2100
2016-11-15T13:45:28.961Z,2060
2016-11-15T13:46:29.337Z,2316
2016-11-15T13:47:29.162Z,2440
2016-11-15T13:48:28.983Z,2676
2016-11-15T13:49:29.115Z,2724
2016-11-15T13:50:28.566Z,2636
2016-11-15T13:51:28.900Z,2552
2016-11-15T13:52:28.641Z,2336
2016-11-15T13:53:28.893Z,1976
2016-11-15T13:54:28.540Z,1852
2016-11-15T13:55:28.849Z,1636
2016-11-15T13:56:28.844Z,1760
2016-11-15T13:57:29.803Z,1976
2016-11-15T13:58:29.376Z,2016
2016-11-15T13:59:29.344Z,2212
2016-11-15T14:00:29.125Z,2224